Time;durP1;ratioP1;P1;durP2;ratioP2;P2;SDS_P1;SDS_P2;PMS_P1;PMS_P2;Temp;Humidity;BMP_temperature;BMP_pressure;BME280_temperature;BME280_humidity;BME280_pressure;Samples;Min_cycle;Max_cycle;Signal;HPM_P1;HPM_P2
2022/03/31 00:00:48;;;;;;;10.98;3.47;;;15.10;61.40;;;;;;5013910;28;20651;-73
2022/03/31 00:03:17;;;;;;;5.70;3.75;;;15.00;61.80;;;;;;5016544;28;20173;-73
2022/03/31 00:05:44;;;;;;;10.35;3.88;;;14.90;61.90;;;;;;5015110;28;20193;-73
2022/03/31 00:08:15;;;;;;;8.73;3.53;;;14.90;62.00;;;;;;5013947;28;20246;-73
2022/03/31 00:10:42;;;;;;;3.30;3.10;;;14.70;62.60;;;;;;5009483;28;20219;-72
2022/03/31 00:13:10;;;;;;;4.50;2.58;;;14.60;62.70;;;;;;5016732;28;20191;-73
2022/03/31 00:15:37;;;;;;;7.45;3.20;;;14.60;62.60;;;;;;5015255;28;20239;-73
2022/03/31 00:18:04;;;;;;;9.65;3.30;;;14.50;62.70;;;;;;5015444;28;20189;-73
2022/03/31 00:20:30;;;;;;;5.18;2.92;;;14.50;63.30;;;;;;5013075;28;20257;-73
2022/03/31 00:22:56;;;;;;;8.98;2.80;;;14.40;62.90;;;;;;5012978;28;20189;-72
2022/03/31 00:25:26;;;;;;;11.95;2.78;;;14.50;63.00;;;;;;5008573;28;20930;-72
2022/03/31 00:27:53;;;;;;;3.40;2.40;;;14.50;62.70;;;;;;5007311;28;20735;-72
2022/03/31 00:30:19;;;;;;;6.28;3.10;;;14.50;63.10;;;;;;5011979;28;20726;-72
2022/03/31 00:32:45;;;;;;;7.43;2.58;;;14.50;63.30;;;;;;5013940;28;20680;-72
2022/03/31 00:35:15;;;;;;;4.57;1.98;;;14.40;63.20;;;;;;5013952;28;20216;-72
2022/03/31 00:37:42;;;;;;;4.47;1.75;;;14.50;62.90;;;;;;5011668;28;20570;-72
2022/03/31 00:40:10;;;;;;;8.55;2.25;;;14.50;63.60;;;;;;5013793;28;20189;-73
2022/03/31 00:42:43;;;;;;;4.68;2.30;;;14.60;63.60;;;;;;5005684;28;20679;-73
2022/03/31 00:45:14;;;;;;;3.35;2.15;;;14.60;63.30;;;;;;5011708;28;20188;-73
2022/03/31 00:47:40;;;;;;;13.35;2.53;;;14.60;63.70;;;;;;5014886;28;20725;-73
2022/03/31 00:50:06;;;;;;;10.93;1.30;;;14.70;63.70;;;;;;5009222;28;20255;-72
2022/03/31 00:52:34;;;;;;;2.97;1.52;;;14.80;64.50;;;;;;5013375;28;20189;-74
2022/03/31 00:55:00;;;;;;;4.47;2.28;;;14.90;64.30;;;;;;5011281;28;20189;-73
2022/03/31 00:57:26;;;;;;;10.02;2.22;;;15.00;63.60;;;;;;5006864;28;20631;-73
2022/03/31 00:59:53;;;;;;;3.67;1.85;;;15.00;62.70;;;;;;5010473;28;20770;-73
2022/03/31 01:02:18;;;;;;;7.10;2.45;;;15.00;62.70;;;;;;5013651;28;20270;-72
2022/03/31 01:04:45;;;;;;;5.30;2.15;;;15.10;62.40;;;;;;5011200;28;20221;-72
2022/03/31 01:07:11;;;;;;;9.15;2.22;;;15.00;62.70;;;;;;5012011;28;20185;-71
2022/03/31 01:09:37;;;;;;;11.27;2.72;;;15.00;63.40;;;;;;5009261;28;20217;-72
2022/03/31 01:12:03;;;;;;;9.43;2.85;;;14.90;63.30;;;;;;5015964;28;20190;-72
2022/03/31 01:14:30;;;;;;;5.53;2.38;;;14.80;63.00;;;;;;5010894;28;20187;-72
2022/03/31 01:16:56;;;;;;;3.03;1.67;;;14.80;62.90;;;;;;5010798;28;20188;-71
2022/03/31 01:19:22;;;;;;;8.77;2.85;;;14.80;63.00;;;;;;5012993;28;20192;-72
2022/03/31 01:21:48;;;;;;;6.53;2.03;;;14.70;63.10;;;;;;5006880;28;20189;-72
2022/03/31 01:24:14;;;;;;;2.88;2.00;;;14.70;63.20;;;;;;5009649;28;20191;-72
2022/03/31 01:26:41;;;;;;;6.75;1.70;;;14.60;63.80;;;;;;5013713;28;20339;-72
2022/03/31 01:29:08;;;;;;;7.13;2.08;;;14.60;64.60;;;;;;5011473;28;20240;-72
2022/03/31 01:31:36;;;;;;;8.00;2.28;;;14.60;64.40;;;;;;5009151;28;20212;-72
2022/03/31 01:34:02;;;;;;;4.32;2.10;;;14.60;63.90;;;;;;5011901;28;20238;-72
2022/03/31 01:36:28;;;;;;;7.03;2.08;;;14.60;63.70;;;;;;5009991;28;20930;-72
2022/03/31 01:38:55;;;;;;;12.85;1.85;;;14.60;63.70;;;;;;5013483;28;20193;-72
2022/03/31 01:41:22;;;;;;;8.38;2.30;;;14.60;63.60;;;;;;5010014;28;20173;-72
2022/03/31 01:43:48;;;;;;;4.72;2.28;;;14.60;63.70;;;;;;5011133;28;20185;-72
2022/03/31 01:46:14;;;;;;;6.20;2.40;;;14.60;63.70;;;;;;5016285;28;20192;-73
2022/03/31 01:48:40;;;;;;;5.97;2.80;;;14.50;64.10;;;;;;5011993;28;20181;-72
2022/03/31 01:51:05;;;;;;;10.52;2.63;;;14.50;64.10;;;;;;5010723;28;20217;-71
2022/03/31 01:53:33;;;;;;;2.35;2.15;;;14.50;64.10;;;;;;5015599;28;20239;-72
2022/03/31 01:55:59;;;;;;;12.38;1.90;;;14.40;64.00;;;;;;5010895;28;20565;-73
2022/03/31 01:58:24;;;;;;;11.45;2.67;;;14.40;63.80;;;;;;5020211;28;20189;-72
2022/03/31 02:00:53;;;;;;;9.35;2.47;;;14.40;64.20;;;;;;5013507;28;20197;-72
2022/03/31 02:03:19;;;;;;;4.47;1.90;;;14.40;64.10;;;;;;5010209;28;20936;-72
2022/03/31 02:05:44;;;;;;;7.70;2.42;;;14.40;64.10;;;;;;5009701;28;20193;-72
2022/03/31 02:08:10;;;;;;;3.30;1.77;;;14.40;64.10;;;;;;5008862;28;20192;-72
2022/03/31 02:10:36;;;;;;;6.15;2.45;;;14.30;64.10;;;;;;5011948;28;20212;-72
2022/03/31 02:13:02;;;;;;;4.85;1.95;;;14.30;64.70;;;;;;5010898;28;20191;-72
2022/03/31 02:15:31;;;;;;;6.45;2.75;;;14.30;64.50;;;;;;5009711;28;20183;-72
2022/03/31 02:17:57;;;;;;;13.50;2.53;;;14.30;64.40;;;;;;5013445;28;20235;-73
2022/03/31 02:20:24;;;;;;;3.15;1.90;;;14.30;64.20;;;;;;5014261;28;20188;-72
2022/03/31 02:22:50;;;;;;;5.45;2.20;;;14.30;64.60;;;;;;5008259;28;20186;-73
2022/03/31 02:25:16;;;;;;;3.85;1.83;;;14.20;64.40;;;;;;5007129;28;20594;-72
2022/03/31 02:27:42;;;;;;;6.13;2.33;;;14.20;64.60;;;;;;5015834;28;20185;-72
2022/03/31 02:30:08;;;;;;;4.95;1.83;;;14.10;64.40;;;;;;5008957;28;20815;-72
2022/03/31 02:32:35;;;;;;;6.10;2.25;;;14.10;64.10;;;;;;5012404;28;20816;-72
2022/03/31 02:35:02;;;;;;;11.43;2.30;;;14.10;64.00;;;;;;5006289;28;20659;-72
2022/03/31 02:37:27;;;;;;;5.97;2.83;;;14.20;63.90;;;;;;5007612;28;20616;-72
2022/03/31 02:39:53;;;;;;;5.32;2.03;;;14.10;64.10;;;;;;5016524;28;20185;-73
2022/03/31 02:42:19;;;;;;;7.32;2.38;;;14.10;64.10;;;;;;5010282;28;20265;-73
2022/03/31 02:44:45;;;;;;;5.20;1.90;;;14.10;64.20;;;;;;5009688;28;20263;-71
2022/03/31 02:47:11;;;;;;;8.45;2.58;;;14.10;64.10;;;;;;5011664;28;20179;-73
2022/03/31 02:49:38;;;;;;;4.13;2.13;;;14.10;64.20;;;;;;5006088;28;20292;-71
2022/03/31 02:52:04;;;;;;;4.15;2.10;;;14.10;63.90;;;;;;5005487;28;20674;-72
2022/03/31 02:57:14;;;;;;;4.07;2.13;;;14.00;64.00;;;;;;5011745;28;20621;-72
2022/03/31 02:59:40;;;;;;;7.40;2.10;;;14.00;64.10;;;;;;5015214;28;20185;-72
2022/03/31 03:02:06;;;;;;;10.80;2.83;;;14.00;64.10;;;;;;5010563;28;20177;-72
2022/03/31 03:04:32;;;;;;;4.28;2.65;;;14.00;64.00;;;;;;5012225;28;20181;-73
2022/03/31 03:06:58;;;;;;;3.70;2.25;;;14.00;64.00;;;;;;5012343;28;20200;-72
2022/03/31 03:09:24;;;;;;;5.05;2.13;;;14.00;64.10;;;;;;5009703;28;20215;-73
2022/03/31 03:11:50;;;;;;;3.80;2.00;;;14.00;64.20;;;;;;5019380;28;20617;-73
2022/03/31 03:14:16;;;;;;;4.40;2.40;;;14.00;64.10;;;;;;5015880;28;20246;-72
2022/03/31 03:16:42;;;;;;;2.50;2.30;;;13.90;64.10;;;;;;5016637;28;20181;-72
2022/03/31 03:19:08;;;;;;;2.47;2.38;;;13.90;64.10;;;;;;5015146;28;20659;-73
2022/03/31 03:21:34;;;;;;;5.70;2.65;;;13.90;64.20;;;;;;5011753;28;20185;-73
2022/03/31 03:24:01;;;;;;;5.30;3.05;;;13.90;64.30;;;;;;5011043;28;20176;-73
2022/03/31 03:26:28;;;;;;;5.40;2.85;;;13.90;64.30;;;;;;5009683;28;20284;-74
2022/03/31 03:28:54;;;;;;;3.50;2.60;;;13.90;64.40;;;;;;5010937;28;20668;-72
2022/03/31 03:31:20;;;;;;;3.85;2.75;;;13.90;64.20;;;;;;5013507;28;20193;-72
2022/03/31 03:33:46;;;;;;;5.45;2.03;;;13.80;64.50;;;;;;5011097;28;20861;-73
2022/03/31 03:36:14;;;;;;;7.03;2.38;;;13.80;64.40;;;;;;5013898;28;20192;-72
2022/03/31 03:38:41;;;;;;;5.30;2.72;;;13.80;64.40;;;;;;5014373;28;20177;-72
2022/03/31 03:41:08;;;;;;;8.07;2.88;;;13.80;64.50;;;;;;5012195;28;20360;-72
2022/03/31 03:43:33;;;;;;;5.32;2.40;;;13.70;64.70;;;;;;5014799;28;20186;-73
2022/03/31 03:45:59;;;;;;;7.90;2.88;;;13.70;64.90;;;;;;5012731;28;20185;-73
2022/03/31 03:48:25;;;;;;;2.72;1.95;;;13.70;64.90;;;;;;5014729;28;20542;-72
2022/03/31 03:50:51;;;;;;;7.25;2.20;;;13.60;64.90;;;;;;5012240;28;20235;-73
2022/03/31 03:53:17;;;;;;;3.90;3.10;;;13.60;64.80;;;;;;5013318;28;20185;-73
2022/03/31 03:55:43;;;;;;;7.72;2.63;;;13.60;64.80;;;;;;5012809;28;20272;-73
2022/03/31 03:58:08;;;;;;;5.03;2.88;;;13.60;65.00;;;;;;5009987;28;20965;-74
2022/03/31 04:00:34;;;;;;;6.40;2.58;;;13.60;64.80;;;;;;5010433;28;20629;-73
2022/03/31 04:03:01;;;;;;;6.10;3.33;;;13.50;65.20;;;;;;5011684;28;20619;-72
2022/03/31 04:05:27;;;;;;;7.13;2.55;;;13.50;65.00;;;;;;5010413;28;20254;-73
2022/03/31 04:07:52;;;;;;;4.40;2.55;;;13.50;65.10;;;;;;5009673;28;20685;-72
2022/03/31 04:10:18;;;;;;;4.63;2.95;;;13.50;65.00;;;;;;5007694;28;20593;-73
2022/03/31 04:12:44;;;;;;;4.38;2.90;;;13.50;65.20;;;;;;5012159;28;20239;-73
2022/03/31 04:15:13;;;;;;;3.65;2.50;;;13.50;65.20;;;;;;5014659;28;20189;-73
2022/03/31 04:17:39;;;;;;;4.97;2.92;;;13.50;65.20;;;;;;5014209;28;20247;-73
2022/03/31 04:20:06;;;;;;;8.43;2.72;;;13.40;65.30;;;;;;5010520;28;20811;-73
2022/03/31 04:22:37;;;;;;;9.23;3.60;;;13.40;65.20;;;;;;5007108;28;20243;-73
2022/03/31 04:25:04;;;;;;;3.97;2.75;;;13.40;65.50;;;;;;5010838;28;20674;-72
2022/03/31 04:27:30;;;;;;;10.13;2.95;;;13.40;65.50;;;;;;5009365;28;20191;-74
2022/03/31 04:29:56;;;;;;;6.60;2.65;;;13.40;65.50;;;;;;5012155;28;20217;-73
2022/03/31 04:32:21;;;;;;;8.60;3.65;;;13.40;65.40;;;;;;5008954;28;20187;-72
2022/03/31 04:34:47;;;;;;;3.22;2.47;;;13.40;65.40;;;;;;5011954;28;20184;-73
2022/03/31 04:37:13;;;;;;;6.65;2.38;;;13.40;65.50;;;;;;5012122;28;20189;-73
2022/03/31 04:39:39;;;;;;;5.10;2.70;;;13.40;65.70;;;;;;5011256;28;20185;-73
2022/03/31 04:42:05;;;;;;;3.60;3.22;;;13.40;66.20;;;;;;5009752;28;20556;-73
2022/03/31 04:44:31;;;;;;;11.10;3.13;;;13.40;66.00;;;;;;5011857;28;20177;-73
2022/03/31 04:46:56;;;;;;;7.43;3.08;;;13.40;66.20;;;;;;5013206;28;20176;-73
2022/03/31 04:49:22;;;;;;;4.00;3.13;;;13.40;66.30;;;;;;5009933;28;20209;-73
2022/03/31 04:51:48;;;;;;;7.50;3.03;;;13.30;67.00;;;;;;5015851;28;20220;-73
2022/03/31 04:54:13;;;;;;;10.05;3.60;;;13.30;66.60;;;;;;5014642;28;20208;-72
2022/03/31 04:56:39;;;;;;;4.68;2.78;;;13.30;67.10;;;;;;5012948;28;20180;-72
2022/03/31 04:59:05;;;;;;;8.75;2.95;;;13.30;67.30;;;;;;5010655;28;21086;-72
2022/03/31 05:01:31;;;;;;;8.57;3.00;;;13.30;66.80;;;;;;5012419;28;20318;-73
2022/03/31 05:03:57;;;;;;;5.05;3.17;;;13.30;67.20;;;;;;5009102;28;20192;-73
2022/03/31 05:06:23;;;;;;;6.45;3.33;;;13.30;67.10;;;;;;5010822;28;20195;-73
2022/03/31 05:08:48;;;;;;;8.32;3.13;;;13.30;67.20;;;;;;5011645;28;20180;-73
2022/03/31 05:11:14;;;;;;;5.63;3.38;;;13.30;67.20;;;;;;5011898;28;20187;-73
2022/03/31 05:13:40;;;;;;;15.75;3.55;;;13.30;67.70;;;;;;5010769;28;20680;-73
2022/03/31 05:16:06;;;;;;;6.60;3.38;;;13.30;67.60;;;;;;5008774;28;20204;-74
2022/03/31 05:18:32;;;;;;;7.70;3.03;;;13.30;68.10;;;;;;5011994;28;20209;-74
2022/03/31 05:20:58;;;;;;;9.35;3.58;;;13.30;68.20;;;;;;5009099;28;20271;-73
2022/03/31 05:23:24;;;;;;;9.20;3.83;;;13.30;68.30;;;;;;5011855;28;20948;-74
2022/03/31 05:25:50;;;;;;;6.22;3.22;;;13.30;68.30;;;;;;5013887;28;20227;-73
2022/03/31 05:28:16;;;;;;;7.55;3.03;;;13.40;68.30;;;;;;5008183;28;20250;-73
2022/03/31 05:30:42;;;;;;;8.32;3.20;;;13.40;68.00;;;;;;5008763;28;20221;-73
2022/03/31 05:33:08;;;;;;;6.88;3.53;;;13.40;68.00;;;;;;5010738;28;20180;-73
2022/03/31 05:35:34;;;;;;;7.20;3.97;;;13.40;67.80;;;;;;5006966;28;20691;-74
2022/03/31 05:38:01;;;;;;;4.90;3.03;;;13.40;67.50;;;;;;5010441;28;20641;-76
2022/03/31 05:40:27;;;;;;;3.20;3.00;;;13.50;67.70;;;;;;5010406;28;20305;-74
2022/03/31 05:42:55;;;;;;;7.68;3.17;;;13.50;68.10;;;;;;5017305;28;20192;-73
2022/03/31 05:45:21;;;;;;;8.20;3.80;;;13.60;68.30;;;;;;5009800;28;20272;-73
2022/03/31 05:47:46;;;;;;;10.70;3.53;;;13.60;68.90;;;;;;5014190;28;20341;-74
2022/03/31 05:50:13;;;;;;;7.22;2.38;;;13.60;70.30;;;;;;5009386;28;20803;-74
2022/03/31 05:52:42;;;;;;;10.85;2.38;;;13.60;70.90;;;;;;5014124;28;20187;-74
2022/03/31 05:55:10;;;;;;;10.77;2.90;;;13.70;71.90;;;;;;5011458;28;20272;-74
2022/03/31 05:57:37;;;;;;;6.10;1.90;;;13.80;71.90;;;;;;5014498;28;20773;-73
2022/03/31 06:00:05;;;;;;;5.28;1.88;;;13.90;72.20;;;;;;5005017;28;20246;-73
2022/03/31 06:02:31;;;;;;;11.90;2.35;;;14.00;72.60;;;;;;5012203;28;20208;-73
2022/03/31 06:04:56;;;;;;;4.53;2.95;;;14.20;71.50;;;;;;5007603;28;20185;-74
2022/03/31 06:07:22;;;;;;;5.57;2.58;;;14.30;70.80;;;;;;5009793;28;20183;-75
2022/03/31 06:09:48;;;;;;;9.90;3.03;;;14.50;70.20;;;;;;5011834;28;20212;-75
2022/03/31 06:12:15;;;;;;;10.55;2.80;;;14.60;70.20;;;;;;5005705;28;20395;-74
2022/03/31 06:14:41;;;;;;;18.88;2.63;;;14.70;69.90;;;;;;5012491;28;20185;-73
2022/03/31 06:17:07;;;;;;;6.40;2.72;;;14.80;69.50;;;;;;5005942;28;20193;-74
2022/03/31 06:19:33;;;;;;;11.52;3.08;;;14.80;69.60;;;;;;5009764;28;20197;-72
2022/03/31 06:21:59;;;;;;;11.13;2.78;;;14.80;70.50;;;;;;5007465;28;20650;-72
2022/03/31 06:24:25;;;;;;;17.98;3.42;;;14.80;70.80;;;;;;5007963;28;20185;-73
2022/03/31 06:26:50;;;;;;;12.55;2.75;;;14.70;70.80;;;;;;5015635;28;20297;-74
2022/03/31 06:29:16;;;;;;;7.20;2.35;;;14.80;71.00;;;;;;5007945;28;20212;-74
2022/03/31 06:31:42;;;;;;;21.20;2.63;;;14.80;71.30;;;;;;5015798;28;20661;-74
2022/03/31 06:34:08;;;;;;;14.35;3.25;;;14.80;71.40;;;;;;5011030;28;20676;-74
2022/03/31 06:36:35;;;;;;;13.35;2.75;;;14.90;71.10;;;;;;5015191;28;20188;-72
2022/03/31 06:39:01;;;;;;;17.67;3.25;;;15.00;70.50;;;;;;5017948;28;20298;-73
2022/03/31 06:41:27;;;;;;;11.85;2.53;;;15.00;71.30;;;;;;5011236;28;20208;-73
2022/03/31 06:43:52;;;;;;;11.57;2.50;;;15.10;70.50;;;;;;5014855;28;20276;-72
2022/03/31 06:46:18;;;;;;;13.73;2.78;;;15.20;69.90;;;;;;5016300;28;20187;-73
2022/03/31 06:48:48;;;;;;;9.73;3.92;;;15.40;69.70;;;;;;5013058;28;20200;-73
2022/03/31 06:51:18;;;;;;;10.82;3.80;;;15.40;69.70;;;;;;5015286;28;20185;-73
2022/03/31 06:53:44;;;;;;;10.55;3.28;;;15.40;68.90;;;;;;5012066;28;20204;-73
2022/03/31 06:56:18;;;;;;;6.63;3.67;;;15.40;68.80;;;;;;5019232;28;20216;-74
2022/03/31 06:58:44;;;;;;;10.82;3.80;;;15.40;69.20;;;;;;5016077;28;20184;-73
2022/03/31 07:01:11;;;;;;;9.52;3.35;;;15.50;68.70;;;;;;5017213;28;20246;-73
2022/03/31 07:03:37;;;;;;;10.63;3.35;;;15.60;68.60;;;;;;5012737;28;20705;-73
2022/03/31 07:06:03;;;;;;;13.52;3.22;;;15.70;69.40;;;;;;5018701;28;20218;-73
2022/03/31 07:08:30;;;;;;;7.80;3.53;;;15.70;69.20;;;;;;5017735;28;20732;-72
2022/03/31 07:10:56;;;;;;;11.93;4.35;;;15.80;68.50;;;;;;5013424;28;20242;-74
2022/03/31 07:13:21;;;;;;;6.95;3.92;;;15.80;68.30;;;;;;5016131;28;20927;-73
2022/03/31 07:15:47;;;;;;;12.02;4.50;;;15.90;68.10;;;;;;5017816;28;20195;-73
2022/03/31 07:18:13;;;;;;;15.95;4.82;;;16.00;67.90;;;;;;5018251;28;20653;-72
2022/03/31 07:20:39;;;;;;;11.63;4.97;;;16.10;68.20;;;;;;5017527;28;20686;-75
2022/03/31 07:23:07;;;;;;;16.10;3.42;;;16.10;68.00;;;;;;5018171;28;20185;-74
2022/03/31 07:25:33;;;;;;;7.53;3.97;;;16.10;68.20;;;;;;5015663;28;20979;-72
2022/03/31 07:27:59;;;;;;;9.05;4.53;;;16.00;68.50;;;;;;5012491;28;20189;-75
2022/03/31 07:30:25;;;;;;;13.63;4.53;;;16.00;68.10;;;;;;5015991;28;20267;-74
2022/03/31 07:32:55;;;;;;;8.35;4.18;;;16.00;68.20;;;;;;5016020;28;21042;-74
2022/03/31 07:35:24;;;;;;;13.68;4.80;;;16.20;68.10;;;;;;5015319;28;20185;-74
2022/03/31 07:37:51;;;;;;;17.42;4.75;;;16.30;68.00;;;;;;5017277;28;20180;-74
2022/03/31 07:40:17;;;;;;;11.48;4.28;;;16.50;67.80;;;;;;5015464;28;20193;-73
2022/03/31 07:42:44;;;;;;;13.90;4.90;;;16.60;67.50;;;;;;5018187;28;20183;-74
2022/03/31 07:45:11;;;;;;;13.85;3.95;;;16.80;67.30;;;;;;5019302;28;20172;-73
2022/03/31 07:47:38;;;;;;;14.65;4.75;;;16.90;67.10;;;;;;5014013;28;20550;-73
2022/03/31 07:50:05;;;;;;;16.05;4.93;;;17.10;67.00;;;;;;5015468;28;20204;-73
2022/03/31 07:52:31;;;;;;;13.60;4.70;;;17.20;66.70;;;;;;5018357;28;20773;-73
2022/03/31 07:54:57;;;;;;;14.75;5.25;;;17.40;66.50;;;;;;5019917;28;20181;-73
2022/03/31 07:57:22;;;;;;;17.10;5.20;;;17.50;66.40;;;;;;5018845;28;20176;-71
2022/03/31 07:59:48;;;;;;;6.93;4.45;;;17.60;66.10;;;;;;5016248;28;20207;-73
2022/03/31 08:02:16;;;;;;;13.23;4.40;;;17.70;65.50;;;;;;5016528;28;20181;-73
2022/03/31 08:04:42;;;;;;;11.52;5.05;;;17.80;65.30;;;;;;5014816;28;20216;-73
2022/03/31 08:07:08;;;;;;;9.43;4.00;;;17.90;65.50;;;;;;5009120;28;20232;-73
2022/03/31 08:09:33;;;;;;;10.07;4.63;;;18.10;65.00;;;;;;5015086;28;20212;-73
2022/03/31 08:11:59;;;;;;;11.70;4.53;;;18.10;64.90;;;;;;5013402;28;20172;-73
2022/03/31 08:14:25;;;;;;;19.25;4.70;;;18.10;64.80;;;;;;5012005;28;20180;-75
2022/03/31 08:16:52;;;;;;;15.88;4.88;;;18.20;64.80;;;;;;5011864;28;20678;-72
2022/03/31 08:19:19;;;;;;;10.80;4.13;;;18.10;64.90;;;;;;5013580;28;20259;-72
2022/03/31 08:21:47;;;;;;;11.52;2.78;;;18.00;64.90;;;;;;5014291;28;20239;-72
2022/03/31 08:24:13;;;;;;;10.98;3.00;;;17.90;64.70;;;;;;5013109;28;20212;-72
2022/03/31 08:26:40;;;;;;;11.45;3.63;;;17.90;64.60;;;;;;5014440;28;20181;-73
2022/03/31 08:29:07;;;;;;;7.85;2.78;;;18.00;64.60;;;;;;5011713;28;20301;-72
2022/03/31 08:31:34;;;;;;;12.75;3.95;;;18.20;64.40;;;;;;5010864;28;20180;-72
2022/03/31 08:34:04;;;;;;;12.63;2.78;;;18.40;64.20;;;;;;5015948;28;20180;-73
2022/03/31 08:36:30;;;;;;;11.10;3.83;;;18.60;63.80;;;;;;5013841;28;20188;-72
2022/03/31 08:38:57;;;;;;;12.52;3.40;;;18.80;63.50;;;;;;5012702;28;20187;-73
2022/03/31 08:41:28;;;;;;;20.63;3.60;;;19.00;63.50;;;;;;5015159;28;20181;-74
2022/03/31 08:43:55;;;;;;;13.18;3.13;;;19.00;63.30;;;;;;5019217;28;20525;-72
2022/03/31 08:46:22;;;;;;;19.35;3.08;;;19.10;63.00;;;;;;5015161;28;20685;-72
2022/03/31 08:48:48;;;;;;;19.70;3.28;;;19.20;62.40;;;;;;5015906;28;20184;-72
2022/03/31 08:51:15;;;;;;;9.40;2.45;;;19.20;62.40;;;;;;5010896;28;20195;-72
2022/03/31 08:53:41;;;;;;;8.52;2.33;;;19.10;62.70;;;;;;5015960;28;20346;-73
2022/03/31 08:56:10;;;;;;;13.82;2.67;;;19.10;62.70;;;;;;5012059;28;20218;-72
2022/03/31 08:58:35;;;;;;;19.55;3.25;;;19.30;62.60;;;;;;5014980;28;20184;-72
2022/03/31 09:01:01;;;;;;;5.93;2.40;;;19.20;62.60;;;;;;5015137;28;20197;-72
2022/03/31 09:03:39;;;;;;;11.77;2.33;;;19.20;62.30;;;;;;5012649;28;20247;-73
2022/03/31 09:06:07;;;;;;;13.38;2.25;;;19.20;62.00;;;;;;5013237;28;20273;-72
2022/03/31 09:08:34;;;;;;;8.50;2.15;;;19.20;62.10;;;;;;5011665;28;20211;-71
2022/03/31 09:11:00;;;;;;;6.05;1.83;;;19.20;62.10;;;;;;5016620;28;20682;-72
2022/03/31 09:13:38;;;;;;;8.18;2.05;;;19.30;62.30;;;;;;5011344;28;20220;-73
2022/03/31 09:16:09;;;;;;;12.57;1.75;;;19.40;62.20;;;;;;5046363;28;20185;-73
2022/03/31 09:18:36;;;;;;;7.68;2.45;;;19.50;61.50;;;;;;5043368;28;20186;-72
2022/03/31 09:21:10;;;;;;;15.93;1.88;;;19.50;61.50;;;;;;5010716;28;20195;-72
2022/03/31 09:23:46;;;;;;;14.23;2.58;;;19.60;61.60;;;;;;5009009;28;20658;-71
2022/03/31 09:26:17;;;;;;;14.63;3.10;;;19.70;61.80;;;;;;5007774;28;20262;-73
2022/03/31 09:28:44;;;;;;;10.85;2.10;;;19.90;61.90;;;;;;5012645;28;20184;-73
2022/03/31 09:31:11;;;;;;;12.15;2.60;;;20.10;61.50;;;;;;5013743;28;20604;-73
2022/03/31 09:33:44;;;;;;;6.18;1.90;;;20.10;61.20;;;;;;5011161;28;20180;-72
2022/03/31 09:36:24;;;;;;;9.25;2.30;;;20.20;61.00;;;;;;5014192;28;20268;-72
2022/03/31 09:39:02;;;;;;;12.50;2.17;;;20.40;61.00;;;;;;5012361;28;20303;-71
2022/03/31 09:41:28;;;;;;;6.97;1.95;;;20.70;60.70;;;;;;5011080;28;20180;-73
2022/03/31 09:43:57;;;;;;;8.25;2.08;;;21.00;60.30;;;;;;5010711;28;20188;-72
2022/03/31 09:46:24;;;;;;;12.18;2.10;;;21.30;59.50;;;;;;5010790;28;20184;-72
2022/03/31 09:48:52;;;;;;;9.00;1.92;;;21.50;59.10;;;;;;5008504;28;20280;-72
2022/03/31 09:51:19;;;;;;;13.50;2.03;;;21.70;58.90;;;;;;5009874;28;20292;-71
2022/03/31 09:53:48;;;;;;;13.05;2.38;;;21.80;58.50;;;;;;5017731;28;20263;-73
2022/03/31 09:56:19;;;;;;;13.60;2.22;;;22.00;58.20;;;;;;5009840;28;20192;-72
2022/03/31 09:58:46;;;;;;;13.43;1.65;;;22.10;58.20;;;;;;5026743;28;20234;-72
2022/03/31 10:01:17;;;;;;;11.65;2.10;;;22.00;58.00;;;;;;5016152;28;20275;-72
2022/03/31 10:03:43;;;;;;;14.40;2.38;;;22.00;57.70;;;;;;5009735;28;20176;-73
2022/03/31 10:06:11;;;;;;;11.25;2.05;;;21.90;58.00;;;;;;5012015;28;20829;-73
2022/03/31 10:08:39;;;;;;;8.07;1.92;;;21.80;58.30;;;;;;5011632;28;20192;-72
2022/03/31 10:11:07;;;;;;;6.10;1.35;;;22.00;58.50;;;;;;5011338;28;20212;-71
2022/03/31 10:13:54;;;;;;;11.93;2.10;;;22.10;57.70;;;;;;5014306;28;20226;-72
2022/03/31 10:16:26;;;;;;;13.38;1.60;;;22.10;57.70;;;;;;5010140;28;20276;-72
2022/03/31 10:18:51;;;;;;;18.83;2.03;;;22.10;57.40;;;;;;5012105;28;20212;-73
2022/03/31 10:21:28;;;;;;;10.35;2.15;;;22.00;57.70;;;;;;5009052;28;20204;-72
2022/03/31 10:26:40;;;;;;;15.70;2.20;;;21.70;57.70;;;;;;5012513;28;20191;-73
2022/03/31 10:29:16;;;;;;;11.13;1.77;;;21.60;57.90;;;;;;5010339;28;20186;-72
2022/03/31 10:31:45;;;;;;;12.93;2.08;;;21.20;58.10;;;;;;5012707;28;20176;-73
2022/03/31 10:34:16;;;;;;;17.25;2.35;;;20.90;58.60;;;;;;5007772;28;20181;-73
2022/03/31 10:36:50;;;;;;;12.25;2.22;;;20.70;59.10;;;;;;5011540;28;20195;-73
2022/03/31 10:39:23;;;;;;;15.48;1.73;;;20.70;59.30;;;;;;5011318;28;20720;-72
2022/03/31 10:42:04;;;;;;;14.85;2.13;;;20.80;59.20;;;;;;5008086;28;20181;-73
2022/03/31 10:44:30;;;;;;;11.10;1.67;;;21.10;59.30;;;;;;5010689;28;20184;-75
2022/03/31 10:47:05;;;;;;;5.18;1.65;;;21.40;59.50;;;;;;5012036;28;20184;-73
2022/03/31 10:49:32;;;;;;;9.68;2.05;;;21.70;58.60;;;;;;5008405;28;20214;-73
2022/03/31 10:51:58;;;;;;;12.75;2.13;;;21.90;58.00;;;;;;5012603;28;20184;-73
2022/03/31 10:54:24;;;;;;;15.82;2.22;;;22.10;58.00;;;;;;5007222;28;20248;-73
2022/03/31 10:57:01;;;;;;;18.33;2.92;;;22.30;57.30;;;;;;5012219;28;20185;-73
2022/03/31 10:59:27;;;;;;;11.75;1.83;;;22.30;57.30;;;;;;5006429;28;20188;-76
2022/03/31 11:01:53;;;;;;;11.95;1.67;;;22.50;57.30;;;;;;5012922;28;20776;-74
2022/03/31 11:04:20;;;;;;;15.82;2.30;;;22.50;57.00;;;;;;5010593;28;20272;-73
2022/03/31 11:06:47;;;;;;;11.98;2.33;;;22.50;57.00;;;;;;5009913;28;20200;-73
2022/03/31 11:09:26;;;;;;;12.23;2.25;;;22.60;57.00;;;;;;5007675;28;20305;-73
2022/03/31 11:11:55;;;;;;;10.40;1.80;;;22.50;56.40;;;;;;5011620;28;20323;-73
2022/03/31 11:14:21;;;;;;;11.40;1.73;;;22.30;57.00;;;;;;5013189;28;20184;-73
2022/03/31 11:16:46;;;;;;;11.15;2.00;;;22.00;57.30;;;;;;5010901;28;20184;-73
2022/03/31 11:19:13;;;;;;;19.23;2.63;;;21.80;58.00;;;;;;5007492;28;20726;-76
2022/03/31 11:21:41;;;;;;;17.83;2.67;;;21.50;58.30;;;;;;5003911;28;20232;-74
2022/03/31 11:24:07;;;;;;;13.32;2.00;;;21.20;58.90;;;;;;5012681;28;20223;-74
2022/03/31 11:26:35;;;;;;;12.85;2.00;;;20.90;59.20;;;;;;5015650;28;20212;-74
2022/03/31 11:29:02;;;;;;;12.95;2.67;;;20.80;59.60;;;;;;5012464;28;20277;-74
2022/03/31 11:31:28;;;;;;;10.60;1.75;;;20.70;59.80;;;;;;5012201;28;20173;-74
2022/03/31 11:33:55;;;;;;;6.97;1.70;;;20.80;59.90;;;;;;5012986;28;20193;-74
2022/03/31 11:36:23;;;;;;;9.88;1.73;;;20.80;59.60;;;;;;5013275;28;20238;-74
2022/03/31 11:38:59;;;;;;;9.73;2.17;;;20.80;61.00;;;;;;5013602;28;20204;-74
2022/03/31 11:41:37;;;;;;;13.45;2.17;;;20.60;61.50;;;;;;5010516;28;20183;-75
2022/03/31 11:44:03;;;;;;;5.97;1.90;;;20.50;62.10;;;;;;5013754;28;20184;-75
2022/03/31 11:46:40;;;;;;;11.30;1.63;;;20.30;62.20;;;;;;5012379;28;20184;-74
2022/03/31 11:49:18;;;;;;;8.15;1.90;;;20.30;62.30;;;;;;5012598;28;20188;-74
2022/03/31 11:51:56;;;;;;;12.05;1.83;;;20.30;62.10;;;;;;5013469;28;20192;-75
2022/03/31 11:54:24;;;;;;;10.30;1.52;;;20.30;62.20;;;;;;5013996;28;20259;-73
2022/03/31 11:57:07;;;;;;;6.30;1.55;;;20.40;62.30;;;;;;5012908;28;20188;-74
2022/03/31 11:59:34;;;;;;;17.00;2.03;;;20.30;62.60;;;;;;5012620;28;20181;-72
2022/03/31 12:02:00;;;;;;;3.03;1.02;;;20.30;62.20;;;;;;5012326;28;20181;-74
2022/03/31 12:04:31;;;;;;;8.93;1.30;;;20.20;62.50;;;;;;5009389;28;20185;-73
2022/03/31 12:06:59;;;;;;;6.43;1.40;;;20.20;62.10;;;;;;5013903;28;20192;-74
2022/03/31 12:09:28;;;;;;;5.25;0.95;;;20.20;62.40;;;;;;5011551;28;20265;-72
2022/03/31 12:11:55;;;;;;;4.53;1.00;;;20.30;62.10;;;;;;5009397;28;20628;-71
2022/03/31 12:14:21;;;;;;;4.32;1.25;;;20.50;62.30;;;;;;5017146;28;20246;-71
2022/03/31 12:16:50;;;;;;;6.15;1.27;;;20.80;61.90;;;;;;5011076;28;20628;-71
2022/03/31 12:19:17;;;;;;;2.92;0.82;;;21.10;61.50;;;;;;5013715;28;20275;-71
2022/03/31 12:21:46;;;;;;;3.55;1.10;;;21.30;60.90;;;;;;5014569;28;20184;-72
2022/03/31 12:24:12;;;;;;;4.03;0.73;;;21.50;59.80;;;;;;5014146;28;20177;-71
2022/03/31 12:26:39;;;;;;;5.75;0.80;;;21.60;60.00;;;;;;5014284;28;20268;-71
2022/03/31 12:29:16;;;;;;;1.85;0.70;;;21.90;59.90;;;;;;5012567;28;20209;-71
2022/03/31 12:31:43;;;;;;;6.90;0.88;;;22.20;59.00;;;;;;5007530;28;20181;-72
2022/03/31 12:34:12;;;;;;;2.45;0.85;;;22.30;58.50;;;;;;5019846;28;20172;-73
2022/03/31 12:36:38;;;;;;;9.25;0.93;;;22.30;57.90;;;;;;5011997;28;20201;-71
2022/03/31 12:39:05;;;;;;;8.52;1.27;;;22.00;58.00;;;;;;5009768;28;20177;-75
2022/03/31 12:41:38;;;;;;;12.90;1.67;;;21.70;58.20;;;;;;5015962;28;20181;-73
2022/03/31 12:44:16;;;;;;;10.63;2.13;;;21.70;58.20;;;;;;5011522;28;20215;-74
2022/03/31 12:46:52;;;;;;;10.50;1.50;;;21.70;57.50;;;;;;5011775;28;20313;-75
2022/03/31 12:49:23;;;;;;;8.90;1.98;;;21.60;57.30;;;;;;5013112;28;20292;-73